Time;durP1;ratioP1;P1;durP2;ratioP2;P2;SDS_P1;SDS_P2;PMS_P1;PMS_P2;Temp;Humidity;BMP_temperature;BMP_pressure;BME280_temperature;BME280_humidity;BME280_pressure;Samples;Min_cycle;Max_cycle;Signal;HPM_P1;HPM_P2
2022/05/21 00:02:03;;;;;;;4.00;2.23;;;;;;;;;;5020515;28;20404;-52
2022/05/21 00:04:28;;;;;;;7.93;2.78;;;;;;;;;;5024206;28;20502;-51
2022/05/21 00:06:53;;;;;;;5.20;2.42;;;;;;;;;;5020922;28;20021;-52
2022/05/21 00:09:18;;;;;;;5.38;2.40;;;;;;;;;;5019355;28;20029;-55
2022/05/21 00:11:44;;;;;;;5.33;2.30;;;;;;;;;;5019815;28;20483;-52
2022/05/21 00:14:09;;;;;;;7.20;2.47;;;;;;;;;;5022257;28;21202;-50
2022/05/21 00:16:34;;;;;;;5.83;2.53;;;;;;;;;;5023031;28;20021;-53
2022/05/21 00:18:59;;;;;;;4.77;2.03;;;;;;;;;;5019610;28;20292;-52
2022/05/21 00:21:25;;;;;;;5.18;2.08;;;;;;;;;;5016352;28;20053;-52
2022/05/21 00:23:50;;;;;;;4.17;2.30;;;;;;;;;;5022798;28;20021;-51
2022/05/21 00:26:15;;;;;;;5.37;2.40;;;;;;;;;;5021474;28;20307;-52
2022/05/21 00:28:41;;;;;;;5.63;2.17;;;;;;;;;;5025859;28;20291;-52
2022/05/21 00:31:07;;;;;;;4.05;2.08;;;;;;;;;;5023881;28;20029;-51
2022/05/21 00:33:32;;;;;;;3.83;2.20;;;;;;;;;;5024601;28;20025;-53
2022/05/21 00:35:57;;;;;;;4.28;1.92;;;;;;;;;;5040627;28;20044;-52
2022/05/21 00:38:22;;;;;;;4.07;2.10;;;;;;;;;;5024876;28;20022;-53
2022/05/21 00:40:48;;;;;;;5.05;2.20;;;;;;;;;;5023596;28;20329;-52
2022/05/21 00:43:32;;;;;;;4.40;2.13;;;;;;;;;;5023898;28;20033;-53
2022/05/21 00:45:57;;;;;;;5.03;2.05;;;;;;;;;;5025865;28;20030;-52
2022/05/21 00:48:22;;;;;;;4.28;2.20;;;;;;;;;;5026979;28;20500;-53
2022/05/21 00:50:48;;;;;;;4.37;1.90;;;;;;;;;;5023041;28;20052;-53
2022/05/21 00:53:13;;;;;;;4.65;1.95;;;;;;;;;;5041598;28;20108;-52
2022/05/21 00:55:38;;;;;;;5.50;2.22;;;;;;;;;;5023332;28;20037;-51
2022/05/21 01:00:48;;;;;;;4.15;1.90;;;;;;;;;;5035370;28;20095;-52
2022/05/21 01:03:13;;;;;;;4.72;1.98;;;;;;;;;;5024258;28;20637;-51
2022/05/21 01:05:38;;;;;;;4.30;2.00;;;;;;;;;;5041594;28;20021;-52
2022/05/21 01:08:04;;;;;;;3.28;1.63;;;;;;;;;;5025478;28;20033;-51
2022/05/21 01:10:33;;;;;;;4.35;2.05;;;;;;;;;;5024026;28;20033;-52
2022/05/21 01:12:59;;;;;;;4.80;2.03;;;;;;;;;;5039953;28;20028;-52
2022/05/21 01:15:32;;;;;;;5.82;1.92;;;;;;;;;;5037985;28;20022;-52
2022/05/21 01:17:57;;;;;;;3.80;1.70;;;;;;;;;;5020421;28;20037;-51
2022/05/21 01:20:23;;;;;;;5.50;2.70;;;;;;;;;;5022232;28;20043;-50
2022/05/21 01:22:49;;;;;;;4.47;1.83;;;;;;;;;;5025460;28;20268;-52
2022/05/21 01:25:15;;;;;;;4.95;1.90;;;;;;;;;;5023039;28;20534;-53
2022/05/21 01:27:41;;;;;;;4.95;2.20;;;;;;;;;;5035125;28;20056;-52
2022/05/21 01:30:07;;;;;;;3.53;2.10;;;;;;;;;;5038397;28;20116;-52
2022/05/21 01:32:32;;;;;;;4.20;2.00;;;;;;;;;;5021420;28;20294;-51
2022/05/21 01:34:57;;;;;;;5.23;1.80;;;;;;;;;;5021385;28;20558;-52
2022/05/21 01:37:23;;;;;;;4.13;1.60;;;;;;;;;;5024099;28;20331;-51
2022/05/21 01:39:48;;;;;;;3.00;1.60;;;;;;;;;;5019516;28;20108;-51
2022/05/21 01:42:13;;;;;;;5.07;1.77;;;;;;;;;;5021862;28;20471;-51
2022/05/21 01:44:38;;;;;;;4.57;1.70;;;;;;;;;;5022523;28;20342;-51
2022/05/21 01:47:22;;;;;;;4.40;1.92;;;;;;;;;;5021913;28;20017;-52
2022/05/21 01:49:47;;;;;;;3.70;1.95;;;;;;;;;;5024897;28;20025;-51
2022/05/21 01:52:12;;;;;;;4.47;1.92;;;;;;;;;;5023332;28;20451;-52
2022/05/21 01:54:37;;;;;;;3.40;1.70;;;;;;;;;;5040741;28;20025;-51
2022/05/21 01:57:03;;;;;;;4.97;1.80;;;;;;;;;;5021471;28;20371;-52
2022/05/21 01:59:28;;;;;;;3.50;1.90;;;;;;;;;;5021432;28;20379;-51
2022/05/21 02:01:54;;;;;;;3.30;1.93;;;;;;;;;;5022603;28;20540;-50
2022/05/21 02:04:19;;;;;;;4.60;2.30;;;;;;;;;;5022745;28;20291;-51
2022/05/21 02:06:44;;;;;;;2.88;1.80;;;;;;;;;;5023967;28;20013;-52
2022/05/21 02:09:10;;;;;;;4.90;2.17;;;;;;;;;;5023866;28;20033;-51
2022/05/21 02:11:36;;;;;;;2.78;2.38;;;;;;;;;;5024614;28;20021;-51
2022/05/21 02:14:01;;;;;;;6.13;1.98;;;;;;;;;;5024317;28;20464;-54
2022/05/21 02:16:28;;;;;;;4.33;1.87;;;;;;;;;;5022729;28;20033;-51
2022/05/21 02:18:53;;;;;;;3.90;1.90;;;;;;;;;;5023000;28;20276;-52
2022/05/21 02:21:18;;;;;;;3.35;1.70;;;;;;;;;;5020170;28;20448;-52
2022/05/21 02:23:44;;;;;;;4.05;1.83;;;;;;;;;;5020882;28;20013;-52
2022/05/21 02:26:09;;;;;;;6.22;2.05;;;;;;;;;;5021294;28;20579;-53
2022/05/21 02:28:34;;;;;;;3.93;2.03;;;;;;;;;;5037893;28;20045;-52
2022/05/21 02:30:59;;;;;;;4.50;1.60;;;;;;;;;;5023011;28;20033;-51
2022/05/21 02:33:25;;;;;;;4.67;1.80;;;;;;;;;;5024380;28;20272;-51
2022/05/21 02:35:50;;;;;;;6.43;1.93;;;;;;;;;;5021480;28;20833;-52
2022/05/21 02:40:59;;;;;;;4.38;1.77;;;;;;;;;;5021988;28;20275;-52
2022/05/21 02:43:24;;;;;;;6.13;2.00;;;;;;;;;;5022391;28;20021;-52
2022/05/21 02:45:49;;;;;;;4.47;1.93;;;;;;;;;;5025038;28;20160;-51
2022/05/21 02:48:15;;;;;;;3.93;1.87;;;;;;;;;;5022649;28;20295;-53
2022/05/21 02:50:41;;;;;;;4.53;1.90;;;;;;;;;;5037316;28;20272;-51
2022/05/21 02:53:07;;;;;;;5.30;1.90;;;;;;;;;;5011106;28;20033;-52
2022/05/21 02:55:32;;;;;;;4.85;2.08;;;;;;;;;;5023702;28;20553;-52
2022/05/21 02:57:57;;;;;;;3.40;1.47;;;;;;;;;;5021591;28;20033;-52
2022/05/21 03:00:23;;;;;;;3.42;1.52;;;;;;;;;;5024028;28;20335;-51
2022/05/21 03:02:49;;;;;;;5.03;2.22;;;;;;;;;;5039285;28;20060;-52
2022/05/21 03:05:14;;;;;;;2.73;1.57;;;;;;;;;;5020184;28;20092;-51
2022/05/21 03:07:40;;;;;;;3.95;1.70;;;;;;;;;;5020646;28;20087;-52
2022/05/21 03:10:20;;;;;;;4.85;1.58;;;;;;;;;;5021388;28;20060;-52
2022/05/21 03:12:46;;;;;;;3.20;1.75;;;;;;;;;;5020295;28;20013;-53
2022/05/21 03:15:11;;;;;;;4.65;1.70;;;;;;;;;;5022155;28;20144;-53
2022/05/21 03:17:37;;;;;;;6.63;1.83;;;;;;;;;;5018372;28;20025;-53
2022/05/21 03:20:03;;;;;;;6.33;2.10;;;;;;;;;;5021575;28;20291;-53
2022/05/21 03:22:29;;;;;;;5.68;1.73;;;;;;;;;;5022533;28;20260;-52
2022/05/21 03:24:54;;;;;;;3.35;1.70;;;;;;;;;;5013603;28;20103;-52
2022/05/21 03:27:20;;;;;;;4.60;1.87;;;;;;;;;;5018526;28;20012;-53
2022/05/21 03:29:45;;;;;;;3.85;1.60;;;;;;;;;;5023704;28;20308;-52
2022/05/21 03:32:10;;;;;;;3.93;1.80;;;;;;;;;;5022198;28;20024;-54
2022/05/21 03:34:36;;;;;;;4.57;1.73;;;;;;;;;;5019359;28;20319;-52
2022/05/21 03:37:01;;;;;;;3.30;1.60;;;;;;;;;;5004656;28;20347;-53
2022/05/21 03:39:28;;;;;;;5.03;1.65;;;;;;;;;;5013606;28;20026;-49
2022/05/21 03:41:54;;;;;;;3.60;2.00;;;;;;;;;;5021744;28;20029;-54
2022/05/21 03:44:19;;;;;;;5.25;1.77;;;;;;;;;;5019316;28;20140;-51
2022/05/21 03:46:45;;;;;;;3.70;1.70;;;;;;;;;;5018755;28;20105;-52
2022/05/21 03:49:12;;;;;;;3.67;1.63;;;;;;;;;;5021813;28;20057;-53
2022/05/21 03:51:37;;;;;;;3.20;1.55;;;;;;;;;;5019032;28;20021;-52
2022/05/21 03:54:03;;;;;;;5.43;1.90;;;;;;;;;;5017150;28;20148;-52
2022/05/21 03:56:28;;;;;;;5.15;1.90;;;;;;;;;;5019791;28;20096;-51
2022/05/21 03:58:54;;;;;;;5.97;1.80;;;;;;;;;;5018943;28;20131;-53
2022/05/21 04:01:19;;;;;;;5.18;2.15;;;;;;;;;;5015237;28;20075;-53
2022/05/21 04:03:45;;;;;;;6.03;2.20;;;;;;;;;;5020553;28;20055;-54
2022/05/21 04:06:11;;;;;;;4.90;1.85;;;;;;;;;;5020094;28;20272;-54
2022/05/21 04:08:37;;;;;;;4.60;1.77;;;;;;;;;;5020882;28;20025;-53
2022/05/21 04:11:02;;;;;;;4.20;1.85;;;;;;;;;;5021003;28;20728;-52
2022/05/21 04:13:28;;;;;;;3.53;2.00;;;;;;;;;;5015562;28;20041;-54
2022/05/21 04:15:53;;;;;;;3.88;1.75;;;;;;;;;;5004320;28;20044;-53
2022/05/21 04:18:18;;;;;;;3.30;1.77;;;;;;;;;;5008175;28;20559;-52
2022/05/21 04:20:44;;;;;;;3.03;1.92;;;;;;;;;;5003933;28;21035;-54
2022/05/21 04:23:09;;;;;;;3.88;2.10;;;;;;;;;;5004717;28;20574;-53
2022/05/21 04:25:34;;;;;;;5.83;2.10;;;;;;;;;;5002516;28;20030;-52
2022/05/21 04:27:59;;;;;;;2.90;1.73;;;;;;;;;;5003446;28;20291;-52
2022/05/21 04:30:26;;;;;;;2.97;1.90;;;;;;;;;;5008693;28;20053;-53
2022/05/21 04:32:52;;;;;;;3.40;2.00;;;;;;;;;;5010688;28;20846;-53
2022/05/21 04:35:17;;;;;;;3.45;2.10;;;;;;;;;;5016060;28;20014;-53
2022/05/21 04:37:42;;;;;;;4.30;2.10;;;;;;;;;;5014059;28;20033;-53
2022/05/21 04:40:09;;;;;;;4.23;2.33;;;;;;;;;;5010958;28;20141;-53
2022/05/21 04:42:34;;;;;;;5.57;2.47;;;;;;;;;;5014097;28;20296;-53
2022/05/21 04:44:59;;;;;;;6.57;2.10;;;;;;;;;;5008189;28;20630;-54
2022/05/21 04:47:25;;;;;;;4.68;2.20;;;;;;;;;;5010106;28;20674;-54
2022/05/21 04:49:50;;;;;;;6.55;2.50;;;;;;;;;;5014065;28;20014;-53
2022/05/21 04:52:15;;;;;;;7.07;2.20;;;;;;;;;;5014149;28;21137;-53
2022/05/21 04:54:40;;;;;;;4.68;2.67;;;;;;;;;;5004347;28;20018;-54
2022/05/21 04:57:06;;;;;;;4.93;2.60;;;;;;;;;;5001726;28;20108;-53
2022/05/21 04:59:32;;;;;;;6.97;2.80;;;;;;;;;;5007189;28;20371;-54
2022/05/21 05:01:58;;;;;;;6.15;2.38;;;;;;;;;;5003663;28;20072;-52
2022/05/21 05:04:23;;;;;;;6.28;2.50;;;;;;;;;;5015256;28;20443;-52
2022/05/21 05:06:48;;;;;;;7.88;2.90;;;;;;;;;;5027705;28;20026;-54
2022/05/21 05:09:15;;;;;;;6.70;2.53;;;;;;;;;;5000542;28;20013;-51
2022/05/21 05:11:41;;;;;;;5.35;2.38;;;;;;;;;;5007936;28;20484;-55
2022/05/21 05:14:06;;;;;;;4.97;2.53;;;;;;;;;;5022265;28;20030;-54
2022/05/21 05:16:31;;;;;;;4.60;2.80;;;;;;;;;;5022819;28;20470;-54
2022/05/21 05:18:56;;;;;;;7.87;2.83;;;;;;;;;;5010561;28;20401;-54
2022/05/21 05:21:22;;;;;;;6.77;3.00;;;;;;;;;;5015583;28;20272;-53
2022/05/21 05:23:47;;;;;;;6.33;3.00;;;;;;;;;;5011811;28;20316;-54
2022/05/21 05:26:12;;;;;;;5.40;2.93;;;;;;;;;;5010020;28;20053;-54
2022/05/21 05:28:37;;;;;;;7.00;2.93;;;;;;;;;;5020446;28;20084;-52
2022/05/21 05:31:02;;;;;;;6.93;2.90;;;;;;;;;;5016291;28;20153;-52
2022/05/21 05:33:30;;;;;;;5.10;2.87;;;;;;;;;;5015810;28;20129;-54
2022/05/21 05:35:55;;;;;;;6.60;2.95;;;;;;;;;;5019224;28;20045;-53
2022/05/21 05:38:20;;;;;;;8.38;2.50;;;;;;;;;;5013915;28;20037;-53
2022/05/21 05:40:46;;;;;;;5.65;2.78;;;;;;;;;;5030011;28;20036;-54
2022/05/21 05:43:16;;;;;;;5.47;2.55;;;;;;;;;;5016705;28;20057;-54
2022/05/21 05:45:41;;;;;;;6.20;3.10;;;;;;;;;;5015264;28;20440;-53
2022/05/21 05:48:06;;;;;;;6.60;2.83;;;;;;;;;;5038519;28;20021;-56
2022/05/21 05:50:32;;;;;;;7.40;2.90;;;;;;;;;;5022356;28;20775;-52
2022/05/21 05:53:03;;;;;;;7.50;3.37;;;;;;;;;;5011266;28;20512;-54
2022/05/21 05:55:29;;;;;;;8.27;3.13;;;;;;;;;;5010783;28;20338;-51
2022/05/21 05:57:54;;;;;;;5.25;2.67;;;;;;;;;;5020570;28;20513;-52
2022/05/21 06:00:19;;;;;;;4.43;2.47;;;;;;;;;;5013572;28;20029;-53
2022/05/21 06:03:01;;;;;;;4.20;2.53;;;;;;;;;;5010485;28;20033;-54
2022/05/21 06:05:28;;;;;;;6.85;2.88;;;;;;;;;;5019142;28;20386;-55
2022/05/21 06:07:57;;;;;;;7.60;2.58;;;;;;;;;;5022286;28;21267;-54
2022/05/21 06:10:27;;;;;;;4.82;2.70;;;;;;;;;;5026519;28;20044;-54
2022/05/21 06:12:52;;;;;;;5.32;2.88;;;;;;;;;;5013167;28;20029;-54
2022/05/21 06:15:17;;;;;;;10.25;2.88;;;;;;;;;;5024105;28;20021;-53
2022/05/21 06:17:43;;;;;;;5.57;2.58;;;;;;;;;;5024924;28;20037;-53
2022/05/21 06:20:09;;;;;;;6.80;2.80;;;;;;;;;;5022142;28;20029;-52
2022/05/21 06:22:34;;;;;;;6.38;2.80;;;;;;;;;;5012481;28;20071;-54
2022/05/21 06:25:00;;;;;;;5.50;2.75;;;;;;;;;;5022257;28;20459;-52
2022/05/21 06:27:25;;;;;;;7.07;2.72;;;;;;;;;;5025047;28;20047;-52
2022/05/21 06:29:50;;;;;;;4.80;2.33;;;;;;;;;;5023467;28;20160;-52
2022/05/21 06:32:16;;;;;;;5.43;2.65;;;;;;;;;;5006643;28;20076;-52
2022/05/21 06:34:41;;;;;;;5.93;2.53;;;;;;;;;;5013027;28;20050;-52
2022/05/21 06:37:07;;;;;;;5.35;2.60;;;;;;;;;;5012634;28;20288;-52
2022/05/21 06:39:32;;;;;;;5.45;2.28;;;;;;;;;;5021134;28;20092;-53
2022/05/21 06:41:59;;;;;;;6.60;2.55;;;;;;;;;;5005552;28;20046;-52
2022/05/21 06:44:24;;;;;;;4.28;2.40;;;;;;;;;;5022260;28;20056;-52
2022/05/21 06:46:50;;;;;;;4.63;2.55;;;;;;;;;;5021689;28;20064;-53
2022/05/21 06:49:15;;;;;;;6.47;2.60;;;;;;;;;;5008117;28;20071;-53
2022/05/21 06:51:40;;;;;;;7.47;2.60;;;;;;;;;;5024402;28;20353;-54
2022/05/21 06:54:05;;;;;;;5.77;2.47;;;;;;;;;;5017968;28;20037;-51
2022/05/21 06:56:30;;;;;;;7.57;2.40;;;;;;;;;;5013773;28;20334;-53
2022/05/21 06:58:56;;;;;;;5.93;2.40;;;;;;;;;;5007215;28;20037;-54
2022/05/21 07:01:21;;;;;;;6.23;2.30;;;;;;;;;;5018078;28;20257;-53
2022/05/21 07:03:46;;;;;;;4.07;2.50;;;;;;;;;;5009524;28;20285;-53
2022/05/21 07:08:56;;;;;;;7.68;2.58;;;;;;;;;;5008121;28;20120;-54
2022/05/21 07:11:21;;;;;;;5.13;2.23;;;;;;;;;;5005429;28;20119;-54
2022/05/21 07:13:46;;;;;;;5.63;2.60;;;;;;;;;;5010874;28;20268;-54
2022/05/21 07:16:11;;;;;;;6.90;2.38;;;;;;;;;;5016277;28;20664;-54
2022/05/21 07:18:36;;;;;;;5.97;2.47;;;;;;;;;;5010193;28;20037;-53
2022/05/21 07:21:02;;;;;;;6.47;2.63;;;;;;;;;;5005016;28;20285;-53
2022/05/21 07:23:28;;;;;;;5.07;2.40;;;;;;;;;;5007071;28;20363;-55
2022/05/21 07:25:55;;;;;;;6.88;2.42;;;;;;;;;;5015637;28;20087;-55
2022/05/21 07:28:20;;;;;;;5.75;2.30;;;;;;;;;;5008524;28;20223;-52
2022/05/21 07:30:46;;;;;;;4.88;2.17;;;;;;;;;;5011428;28;20124;-51
2022/05/21 07:33:12;;;;;;;4.95;2.20;;;;;;;;;;5017795;28;20030;-51
2022/05/21 07:35:37;;;;;;;5.28;2.45;;;;;;;;;;5014922;28;20022;-52
2022/05/21 07:38:04;;;;;;;3.83;2.03;;;;;;;;;;5006803;28;20130;-53
2022/05/21 07:40:29;;;;;;;4.88;2.40;;;;;;;;;;5022184;28;20295;-53
2022/05/21 07:42:54;;;;;;;6.70;2.67;;;;;;;;;;5021258;28;20049;-54
2022/05/21 07:45:20;;;;;;;4.30;2.60;;;;;;;;;;5021932;28;20264;-55
2022/05/21 07:47:45;;;;;;;7.80;2.80;;;;;;;;;;5008708;28;20292;-51
2022/05/21 07:50:11;;;;;;;8.00;2.70;;;;;;;;;;5003240;28;20022;-54
2022/05/21 07:52:36;;;;;;;6.88;2.45;;;;;;;;;;5008478;28;20144;-56
2022/05/21 07:55:01;;;;;;;5.87;2.50;;;;;;;;;;5004731;28;20014;-53
2022/05/21 07:57:27;;;;;;;5.70;2.50;;;;;;;;;;5018546;28;20944;-52
2022/05/21 07:59:52;;;;;;;5.03;2.30;;;;;;;;;;5019385;28;20556;-57
2022/05/21 08:02:17;;;;;;;5.90;2.10;;;;;;;;;;5006475;28;20297;-55
2022/05/21 08:04:43;;;;;;;6.05;2.30;;;;;;;;;;5033645;28;20270;-51
2022/05/21 08:07:08;;;;;;;5.35;2.03;;;;;;;;;;5018822;28;20528;-51
2022/05/21 08:09:33;;;;;;;7.47;2.47;;;;;;;;;;5031568;28;20024;-53
2022/05/21 08:11:58;;;;;;;5.80;2.50;;;;;;;;;;5022191;28;20026;-58
2022/05/21 08:14:24;;;;;;;7.17;2.80;;;;;;;;;;5022248;28;20096;-57
2022/05/21 08:16:49;;;;;;;6.25;2.40;;;;;;;;;;5015697;28;20131;-54
2022/05/21 08:19:15;;;;;;;6.77;2.77;;;;;;;;;;5016132;28;20515;-52
2022/05/21 08:21:41;;;;;;;7.65;3.13;;;;;;;;;;5018554;28;20277;-55
2022/05/21 08:27:08;;;;;;;7.25;3.00;;;;;;;;;;5013861;28;20028;-53
2022/05/21 08:29:34;;;;;;;8.15;3.22;;;;;;;;;;5013881;28;20061;-54
2022/05/21 08:32:00;;;;;;;12.05;3.33;;;;;;;;;;5005551;28;20029;-52
2022/05/21 08:34:26;;;;;;;9.32;3.20;;;;;;;;;;5019072;28;20025;-53
2022/05/21 08:36:51;;;;;;;9.45;3.40;;;;;;;;;;5019183;28;20337;-53
2022/05/21 08:39:17;;;;;;;11.13;3.58;;;;;;;;;;5019571;28;20053;-53
2022/05/21 08:41:47;;;;;;;7.63;2.85;;;;;;;;;;5014840;28;20014;-56
2022/05/21 08:44:20;;;;;;;5.60;2.80;;;;;;;;;;5009263;28;20586;-53
2022/05/21 08:46:55;;;;;;;8.73;2.95;;;;;;;;;;5016074;28;20049;-51
2022/05/21 08:49:33;;;;;;;8.05;2.80;;;;;;;;;;5022083;28;20025;-54
2022/05/21 08:52:01;;;;;;;5.57;2.80;;;;;;;;;;5025451;28;20022;-53
2022/05/21 08:54:27;;;;;;;7.75;3.00;;;;;;;;;;5035792;28;20018;-54
2022/05/21 08:56:53;;;;;;;8.85;3.00;;;;;;;;;;5016418;28;20080;-56
2022/05/21 08:59:19;;;;;;;7.03;2.55;;;;;;;;;;5038466;28;20484;-53
2022/05/21 09:01:44;;;;;;;7.15;2.60;;;;;;;;;;5040816;28;20028;-53
2022/05/21 09:04:12;;;;;;;7.43;3.20;;;;;;;;;;5025852;28;20110;-55
2022/05/21 09:07:07;;;;;;;5.88;2.95;;;;;;;;;;5025877;28;20770;-54
2022/05/21 09:09:38;;;;;;;7.55;3.17;;;;;;;;;;5017305;28;20124;-55
2022/05/21 09:12:03;;;;;;;7.15;2.92;;;;;;;;;;5026795;28;20075;-55
2022/05/21 09:14:33;;;;;;;4.87;2.77;;;;;;;;;;5028006;28;20242;-52
2022/05/21 09:17:00;;;;;;;7.38;3.33;;;;;;;;;;5013426;28;20029;-55
2022/05/21 09:19:45;;;;;;;7.43;2.83;;;;;;;;;;5007575;28;20038;-53
2022/05/21 09:22:13;;;;;;;6.43;2.63;;;;;;;;;;5025472;28;20029;-55
2022/05/21 09:24:42;;;;;;;8.50;2.63;;;;;;;;;;5024216;28;20672;-53
2022/05/21 09:27:22;;;;;;;5.95;2.53;;;;;;;;;;5028106;28;20025;-53
2022/05/21 09:29:48;;;;;;;5.60;2.60;;;;;;;;;;5024503;28;20049;-53
2022/05/21 09:32:32;;;;;;;5.15;2.53;;;;;;;;;;5042783;28;20163;-54
2022/05/21 09:34:59;;;;;;;5.88;2.30;;;;;;;;;;5029788;28;20488;-55
2022/05/21 09:37:24;;;;;;;5.80;2.50;;;;;;;;;;5023741;28;20044;-53
2022/05/21 09:39:49;;;;;;;4.57;2.37;;;;;;;;;;5042951;28;20500;-55
2022/05/21 09:45:23;;;;;;;3.28;2.00;;;;;;;;;;5026361;28;20048;-54
2022/05/21 09:47:51;;;;;;;5.90;2.35;;;;;;;;;;5038913;28;20022;-53
2022/05/21 09:50:19;;;;;;;5.13;2.60;;;;;;;;;;5022307;28;20028;-57
2022/05/21 09:52:47;;;;;;;4.40;2.20;;;;;;;;;;5020963;28;20032;-52
2022/05/21 09:55:19;;;;;;;5.93;2.17;;;;;;;;;;5022625;28;20041;-52
2022/05/21 09:57:44;;;;;;;4.47;2.00;;;;;;;;;;5025485;28;20040;-57
2022/05/21 10:00:27;;;;;;;3.20;1.90;;;;;;;;;;5024011;28;20099;-59
2022/05/21 10:02:53;;;;;;;2.53;1.73;;;;;;;;;;5020527;28;20013;-52
2022/05/21 10:05:23;;;;;;;3.00;1.83;;;;;;;;;;5026222;28;20029;-51
2022/05/21 10:10:58;;;;;;;3.95;2.00;;;;;;;;;;5021870;28;20131;-53
2022/05/21 10:13:24;;;;;;;3.88;2.10;;;;;;;;;;5038385;28;20029;-52
2022/05/21 10:15:51;;;;;;;3.53;1.92;;;;;;;;;;5025794;28;20017;-53
2022/05/21 10:18:22;;;;;;;5.20;1.88;;;;;;;;;;5016447;28;20702;-54
2022/05/21 10:20:48;;;;;;;3.20;1.85;;;;;;;;;;5010359;28;20030;-50
2022/05/21 10:23:26;;;;;;;8.57;2.20;;;;;;;;;;5035906;28;20030;-53
2022/05/21 10:26:01;;;;;;;10.05;2.55;;;;;;;;;;5019085;28;20025;-54
2022/05/21 10:28:27;;;;;;;7.28;2.25;;;;;;;;;;5021697;28;20025;-54
2022/05/21 10:31:04;;;;;;;6.50;2.25;;;;;;;;;;5022181;28;20733;-53
2022/05/21 10:33:37;;;;;;;6.32;2.20;;;;;;;;;;5022989;28;20032;-54
2022/05/21 10:36:14;;;;;;;5.03;2.05;;;;;;;;;;5023932;28;20095;-53
2022/05/21 10:38:40;;;;;;;4.93;2.05;;;;;;;;;;5021771;28;20032;-53
2022/05/21 10:41:05;;;;;;;7.53;2.25;;;;;;;;;;5020233;28;20026;-53
2022/05/21 10:43:33;;;;;;;5.83;2.20;;;;;;;;;;5024591;28;20508;-55
2022/05/21 10:46:18;;;;;;;5.35;1.77;;;;;;;;;;5025566;28;20013;-52
2022/05/21 10:48:48;;;;;;;5.63;2.00;;;;;;;;;;5022734;28;20021;-53
2022/05/21 10:51:13;;;;;;;3.10;1.75;;;;;;;;;;5040107;28;20041;-54
2022/05/21 10:53:41;;;;;;;3.53;1.80;;;;;;;;;;5021983;28;20064;-54
2022/05/21 10:56:26;;;;;;;4.47;2.08;;;;;;;;;;5007942;28;20407;-52
2022/05/21 10:59:00;;;;;;;3.72;1.70;;;;;;;;;;5006883;28;20061;-52
2022/05/21 11:01:29;;;;;;;3.20;1.63;;;;;;;;;;5007233;28;20167;-51
2022/05/21 11:04:07;;;;;;;4.38;1.88;;;;;;;;;;5012149;28;20033;-52
2022/05/21 11:06:47;;;;;;;4.15;1.70;;;;;;;;;;5009306;28;20657;-51
2022/05/21 11:09:13;;;;;;;3.45;1.67;;;;;;;;;;5019066;28;20125;-51
2022/05/21 11:11:57;;;;;;;2.77;1.60;;;;;;;;;;5020348;28;20385;-51
2022/05/21 11:14:25;;;;;;;6.22;1.98;;;;;;;;;;5024497;28;20186;-54
2022/05/21 11:17:09;;;;;;;4.00;1.70;;;;;;;;;;5007106;28;20033;-52
2022/05/21 11:19:37;;;;;;;2.67;1.77;;;;;;;;;;5017318;28;20033;-52
2022/05/21 11:22:04;;;;;;;7.05;1.75;;;;;;;;;;5020147;28;20025;-53
2022/05/21 11:24:33;;;;;;;4.30;1.70;;;;;;;;;;5034648;28;20033;-53
2022/05/21 11:27:18;;;;;;;5.15;1.70;;;;;;;;;;5014084;28;21884;-51
2022/05/21 11:29:58;;;;;;;3.88;1.60;;;;;;;;;;5013951;28;20132;-53
2022/05/21 11:37:53;;;;;;;3.30;1.48;;;;;;;;;;5016376;28;20044;-52
2022/05/21 11:40:37;;;;;;;2.92;1.30;;;;;;;;;;5006056;28;20032;-52
2022/05/21 11:43:02;;;;;;;2.05;1.25;;;;;;;;;;5009533;28;20029;-54
2022/05/21 11:45:27;;;;;;;2.90;1.50;;;;;;;;;;5017856;28;20554;-54
2022/05/21 11:48:22;;;;;;;2.57;1.50;;;;;;;;;;5021734;28;20266;-51
2022/05/21 11:50:55;;;;;;;4.13;1.85;;;;;;;;;;5016667;28;20033;-52
2022/05/21 11:53:34;;;;;;;4.00;1.50;;;;;;;;;;5027501;28;20010;-53
2022/05/21 11:56:08;;;;;;;4.63;2.00;;;;;;;;;;5010316;28;20105;-52
2022/05/21 11:58:52;;;;;;;2.47;1.40;;;;;;;;;;5008186;28;20534;-52
2022/05/21 12:01:36;;;;;;;2.83;1.40;;;;;;;;;;5004795;28;20022;-51
2022/05/21 12:04:01;;;;;;;3.30;1.77;;;;;;;;;;5006908;28;20645;-52
2022/05/21 12:06:29;;;;;;;4.13;1.90;;;;;;;;;;5010604;28;20018;-52
2022/05/21 12:09:06;;;;;;;3.17;1.90;;;;;;;;;;5005270;28;20029;-52
2022/05/21 12:11:36;;;;;;;2.97;1.73;;;;;;;;;;5006744;28;20010;-54
2022/05/21 12:14:03;;;;;;;3.75;2.00;;;;;;;;;;5017212;28;20040;-53
2022/05/21 12:16:29;;;;;;;4.30;1.92;;;;;;;;;;5018498;28;20013;-53
2022/05/21 12:18:58;;;;;;;3.10;1.75;;;;;;;;;;5004479;28;20116;-52
2022/05/21 12:22:04;;;;;;;2.90;1.80;;;;;;;;;;5013775;28;20536;-52
2022/05/21 12:24:40;;;;;;;4.25;1.67;;;;;;;;;;5018832;28;20029;-53
2022/05/21 12:27:15;;;;;;;2.97;1.75;;;;;;;;;;5033875;28;20056;-53
2022/05/21 12:29:42;;;;;;;3.13;1.60;;;;;;;;;;5014426;28;20046;-51
2022/05/21 12:32:11;;;;;;;2.70;1.67;;;;;;;;;;5010700;28;20030;-51
2022/05/21 12:34:55;;;;;;;2.43;1.70;;;;;;;;;;5011686;28;20041;-52
2022/05/21 12:37:24;;;;;;;2.40;1.40;;;;;;;;;;5017175;28;20277;-51
2022/05/21 12:39:58;;;;;;;2.85;1.40;;;;;;;;;;5009982;28;20044;-51
2022/05/21 12:42:23;;;;;;;3.58;1.35;;;;;;;;;;5010036;28;20025;-51
2022/05/21 12:44:48;;;;;;;3.55;1.40;;;;;;;;;;5011723;28;20487;-51
2022/05/21 12:47:24;;;;;;;2.97;1.45;;;;;;;;;;5015338;28;20099;-53
2022/05/21 12:49:50;;;;;;;3.05;1.40;;;;;;;;;;5020051;28;20053;-54
2022/05/21 12:52:28;;;;;;;3.95;1.60;;;;;;;;;;5019466;28;20065;-51
2022/05/21 12:55:21;;;;;;;2.28;1.48;;;;;;;;;;5022555;28;20014;-51
2022/05/21 12:57:47;;;;;;;2.45;1.40;;;;;;;;;;4998915;28;20029;-51
2022/05/21 13:00:14;;;;;;;2.88;1.67;;;;;;;;;;5033641;28;20029;-52
2022/05/21 13:02:41;;;;;;;2.63;1.65;;;;;;;;;;5014709;28;20021;-52
2022/05/21 13:05:07;;;;;;;2.25;1.35;;;;;;;;;;5022778;28;20128;-50
2022/05/21 13:07:37;;;;;;;2.33;1.40;;;;;;;;;;5024034;28;20044;-53
2022/05/21 13:10:03;;;;;;;2.50;1.50;;;;;;;;;;5023408;28;20093;-53
2022/05/21 13:12:47;;;;;;;2.20;1.30;;;;;;;;;;5023886;28;20033;-53
2022/05/21 13:15:13;;;;;;;2.92;1.55;;;;;;;;;;5017801;28;20091;-52
2022/05/21 13:17:47;;;;;;;2.22;1.65;;;;;;;;;;5029388;28;20040;-52
2022/05/21 13:20:15;;;;;;;3.50;1.73;;;;;;;;;;5008776;28;20030;-51
2022/05/21 13:22:59;;;;;;;2.28;1.15;;;;;;;;;;5016366;28;20044;-52
2022/05/21 13:25:25;;;;;;;2.20;1.40;;;;;;;;;;5006058;28;20024;-53
2022/05/21 13:27:52;;;;;;;4.15;1.60;;;;;;;;;;5008215;28;20021;-56
2022/05/21 13:30:18;;;;;;;2.72;1.65;;;;;;;;;;5015128;28;20057;-52
2022/05/21 13:32:45;;;;;;;1.83;1.38;;;;;;;;;;5023447;28;20099;-53
2022/05/21 13:35:29;;;;;;;2.35;1.40;;;;;;;;;;5022477;28;20100;-52
2022/05/21 13:37:54;;;;;;;2.03;1.30;;;;;;;;;;5021070;28;20057;-50
2022/05/21 13:40:29;;;;;;;3.77;1.70;;;;;;;;;;5024188;28;20882;-52
2022/05/21 13:42:56;;;;;;;1.98;1.33;;;;;;;;;;5023503;28;20330;-53
2022/05/21 13:45:25;;;;;;;3.30;1.25;;;;;;;;;;5022496;28;20044;-51
2022/05/21 13:48:01;;;;;;;2.83;1.30;;;;;;;;;;5020197;28;20013;-51
2022/05/21 13:50:27;;;;;;;2.53;1.30;;;;;;;;;;5018452;28;20125;-52
2022/05/21 13:52:52;;;;;;;2.15;1.25;;;;;;;;;;5023110;28;20120;-51
2022/05/21 13:55:18;;;;;;;2.23;1.37;;;;;;;;;;5024982;28;20064;-51
2022/05/21 13:57:43;;;;;;;3.08;1.60;;;;;;;;;;5018970;28;20033;-51
2022/05/21 14:00:16;;;;;;;2.30;1.37;;;;;;;;;;5021223;28;20075;-50
2022/05/21 14:02:42;;;;;;;2.40;1.40;;;;;;;;;;5015922;28;20367;-50
2022/05/21 14:05:27;;;;;;;2.05;1.48;;;;;;;;;;5023364;28;20030;-52
2022/05/21 14:07:54;;;;;;;3.15;1.52;;;;;;;;;;5024721;28;20482;-51
2022/05/21 14:10:29;;;;;;;2.05;1.27;;;;;;;;;;5021813;28;20044;-53
2022/05/21 14:12:54;;;;;;;2.30;1.45;;;;;;;;;;5039347;28;20028;-52
2022/05/21 14:15:24;;;;;;;2.08;1.15;;;;;;;;;;5023184;28;20018;-52
2022/05/21 14:17:53;;;;;;;2.35;1.60;;;;;;;;;;5032699;28;20553;-52
2022/05/21 14:20:19;;;;;;;1.65;1.10;;;;;;;;;;5012723;28;20021;-52
2022/05/21 14:22:44;;;;;;;2.65;1.38;;;;;;;;;;5021489;28;20052;-51
2022/05/21 14:25:27;;;;;;;2.78;1.25;;;;;;;;;;5023111;28;20135;-51
2022/05/21 14:28:08;;;;;;;3.60;1.30;;;;;;;;;;5022617;28;20048;-51
2022/05/21 14:30:37;;;;;;;2.17;1.42;;;;;;;;;;5018614;28;20046;-52
2022/05/21 14:33:31;;;;;;;1.80;1.40;;;;;;;;;;5021619;28;20017;-52
2022/05/21 14:36:17;;;;;;;2.28;1.30;;;;;;;;;;5009738;28;20111;-52
2022/05/21 14:38:42;;;;;;;2.50;1.27;;;;;;;;;;5024603;28;20483;-52
2022/05/21 14:41:07;;;;;;;5.23;1.33;;;;;;;;;;5022786;28;20040;-51
2022/05/21 14:43:35;;;;;;;2.20;1.63;;;;;;;;;;5036020;28;20125;-51
2022/05/21 14:46:00;;;;;;;2.97;1.35;;;;;;;;;;5021969;28;20043;-51
2022/05/21 14:48:25;;;;;;;5.23;1.50;;;;;;;;;;5020719;28;20482;-51
2022/05/21 14:53:36;;;;;;;2.00;1.33;;;;;;;;;;5032800;28;20103;-51
2022/05/21 14:56:06;;;;;;;2.42;1.55;;;;;;;;;;5017145;28;20083;-55
2022/05/21 14:58:31;;;;;;;3.63;1.60;;;;;;;;;;5022311;28;20098;-51
2022/05/21 15:00:57;;;;;;;2.63;1.50;;;;;;;;;;5014171;28;20030;-54
2022/05/21 15:03:22;;;;;;;2.45;1.50;;;;;;;;;;5004683;28;20112;-54
2022/05/21 15:05:49;;;;;;;2.43;1.70;;;;;;;;;;5013046;28;20025;-52
2022/05/21 15:08:17;;;;;;;1.90;1.25;;;;;;;;;;5021034;28;20506;-50
2022/05/21 15:10:42;;;;;;;3.15;1.50;;;;;;;;;;5014096;28;20014;-50
2022/05/21 15:13:07;;;;;;;2.30;1.40;;;;;;;;;;5005998;28;20510;-53
2022/05/21 15:15:32;;;;;;;2.93;1.63;;;;;;;;;;5020569;28;20018;-50